Time,TemperatureF,DewpointF,PressureIn,WindDirection,WindDirectionDegrees,WindSpeedMPH,WindSpeedGustMPH,Humidity,HourlyPrecipIn,Conditions,Clouds,dailyrainin,SoftwareType,DateUTC
2013-02-25 00:07:00,36.2,30.0,30.00,SE,144,0.0,1.0,77,0.00,,,0.00,weatherlink.com 1.10,2013-02-25 05:07:00,
2013-02-25 00:22:00,36.0,29.0,30.00,SE,144,0.0,1.0,75,0.00,,,0.00,weatherlink.com 1.10,2013-02-25 05:22:00,
2013-02-25 00:37:00,35.8,29.0,30.00,SE,144,0.0,0.0,77,0.00,,,0.00,weatherlink.com 1.10,2013-02-25 05:37:00,
2013-02-25 00:52:00,35.3,29.0,29.99,SE,144,0.0,1.0,77,0.00,,,0.00,weatherlink.com 1.10,2013-02-25 05:52:00,
2013-02-25 01:07:00,35.4,28.0,29.98,SE,144,0.0,2.0,74,0.00,,,0.00,weatherlink.com 1.10,2013-02-25 06:07:00,
2013-02-25 01:22:00,36.0,28.0,29.99,SE,144,0.0,1.0,74,0.00,,,0.00,weatherlink.com 1.10,2013-02-25 06:22:00,
2013-02-25 01:37:00,36.6,29.0,29.98,SE,144,0.0,1.0,73,0.00,,,0.00,weatherlink.com 1.10,2013-02-25 06:37:00,
2013-02-25 01:52:00,37.1,28.0,29.97,SE,146,0.0,1.0,71,0.00,,,0.00,weatherlink.com 1.10,2013-02-25 06:52:00,
2013-02-25 02:07:00,38.2,28.0,29.98,SSW,205,0.0,2.0,66,0.00,,,0.00,weatherlink.com 1.10,2013-02-25 07:07:00,
2013-02-25 02:22:00,38.5,29.0,29.98,SSW,205,0.0,0.0,68,0.00,,,0.00,weatherlink.com 1.10,2013-02-25 07:22:00,
2013-02-25 02:37:00,37.8,29.0,29.98,SSW,205,0.0,0.0,71,0.00,,,0.00,weatherlink.com 1.10,2013-02-25 07:37:00,
2013-02-25 03:07:00,36.6,29.0,29.97,SSW,205,0.0,0.0,74,0.00,,,0.00,weatherlink.com 1.10,2013-02-25 08:07:00,
2013-02-25 03:22:00,36.5,29.0,29.97,SSW,205,0.0,0.0,74,0.00,,,0.00,weatherlink.com 1.10,2013-02-25 08:22:00,
2013-02-25 03:37:00,36.6,28.0,29.97,SSW,205,0.0,0.0,72,0.00,,,0.00,weatherlink.com 1.10,2013-02-25 08:37:00,
2013-02-25 03:52:00,36.8,29.0,29.97,SSW,205,0.0,1.0,72,0.00,,,0.00,weatherlink.com 1.10,2013-02-25 08:52:00,
2013-02-25 04:22:00,38.9,28.0,29.97,SSW,206,0.0,2.0,66,0.00,,,0.00,weatherlink.com 1.10,2013-02-25 09:22:00,
2013-02-25 04:52:00,39.3,28.0,29.96,ESE,112,0.0,1.0,65,0.00,,,0.00,weatherlink.com 1.10,2013-02-25 09:52:00,
2013-02-25 05:07:00,39.5,28.0,29.96,ESE,114,0.0,1.0,64,0.00,,,0.00,weatherlink.com 1.10,2013-02-25 10:07:00,
2013-02-25 05:52:00,41.5,27.0,29.95,SE,146,2.0,5.0,57,0.00,,,0.00,weatherlink.com 1.10,2013-02-25 10:52:00,
2013-02-25 06:07:00,41.3,26.0,29.95,East,96,0.0,5.0,56,0.00,,,0.00,weatherlink.com 1.10,2013-02-25 11:07:00,
2013-02-25 06:22:00,41.2,27.0,29.96,SE,132,0.0,3.0,57,0.00,,,0.00,weatherlink.com 1.10,2013-02-25 11:22:00,
2013-02-25 06:37:00,41.1,28.0,29.97,SE,146,0.0,4.0,59,0.00,,,0.00,weatherlink.com 1.10,2013-02-25 11:37:00,
2013-02-25 06:52:00,40.8,27.0,29.97,NW,315,0.0,3.0,58,0.00,,,0.00,weatherlink.com 1.10,2013-02-25 11:52:00,
2013-02-25 07:07:00,40.9,27.0,29.98,SE,124,0.0,7.0,58,0.00,,,0.00,weatherlink.com 1.10,2013-02-25 12:07:00,
2013-02-25 07:37:00,40.7,27.0,29.99,SE,140,4.0,5.0,59,0.00,,,0.00,weatherlink.com 1.10,2013-02-25 12:37:00,
2013-02-25 07:52:00,41.0,27.0,30.00,ESE,119,0.0,5.0,59,0.00,,,0.00,weatherlink.com 1.10,2013-02-25 12:52:00,
2013-02-25 08:07:00,41.2,27.0,30.00,North,360,0.0,5.0,57,0.00,,,0.00,weatherlink.com 1.10,2013-02-25 13:07:00,
2013-02-25 08:22:00,41.4,28.0,30.00,SE,136,0.0,4.0,59,0.00,,,0.00,weatherlink.com 1.10,2013-02-25 13:22:00,
2013-02-25 08:37:00,41.4,28.0,30.00,SE,130,2.0,4.0,59,0.00,,,0.00,weatherlink.com 1.10,2013-02-25 13:37:00,
2013-02-25 09:07:00,41.8,28.0,30.01,SE,126,2.0,2.0,58,0.00,,,0.00,weatherlink.com 1.10,2013-02-25 14:07:00,
2013-02-25 09:22:00,42.0,28.0,30.00,SSE,159,0.0,2.0,59,0.00,,,0.00,weatherlink.com 1.10,2013-02-25 14:22:00,
2013-02-25 09:37:00,42.1,28.0,30.01,ESE,106,0.0,3.0,58,0.00,,,0.00,weatherlink.com 1.10,2013-02-25 14:37:00,
2013-02-25 09:52:00,42.5,28.0,30.00,SE,140,1.0,5.0,58,0.00,,,0.00,weatherlink.com 1.10,2013-02-25 14:52:00,
2013-02-25 10:07:00,43.0,29.0,30.00,SE,141,0.0,4.0,57,0.00,,,0.00,weatherlink.com 1.10,2013-02-25 15:07:00,
2013-02-25 10:38:00,44.2,30.0,29.98,SW,234,0.0,6.0,57,0.00,,,0.00,weatherlink.com 1.10,2013-02-25 15:38:00,
2013-02-25 10:53:00,44.9,30.0,29.98,WSW,238,2.0,4.0,56,0.00,,,0.00,weatherlink.com 1.10,2013-02-25 15:53:00,
2013-02-25 11:08:00,44.9,30.0,29.97,SE,129,0.0,5.0,56,0.00,,,0.00,weatherlink.com 1.10,2013-02-25 16:08:00,
2013-02-25 11:23:00,45.4,30.0,29.97,SSE,149,0.0,3.0,56,0.00,,,0.00,weatherlink.com 1.10,2013-02-25 16:23:00,
2013-02-25 11:38:00,45.4,31.0,29.97,SE,133,0.0,4.0,57,0.00,,,0.00,weatherlink.com 1.10,2013-02-25 16:38:00,
2013-02-25 11:53:00,47.0,31.0,29.96,SSE,161,1.0,4.0,55,0.00,,,0.00,weatherlink.com 1.10,2013-02-25 16:53:00,
2013-02-25 12:08:00,48.3,33.0,29.96,ESE,121,1.0,5.0,55,0.00,,,0.00,weatherlink.com 1.10,2013-02-25 17:08:00,
2013-02-25 12:39:00,52.6,35.0,29.95,SE,144,0.0,7.0,51,0.00,,,0.00,weatherlink.com 1.10,2013-02-25 17:39:00,
2013-02-25 12:53:00,53.0,35.0,29.94,SE,142,2.0,5.0,50,0.00,,,0.00,weatherlink.com 1.10,2013-02-25 17:53:00,
2013-02-25 13:23:00,53.1,34.0,29.93,SE,143,4.0,7.0,48,0.00,,,0.00,weatherlink.com 1.10,2013-02-25 18:23:00,
2013-02-25 13:38:00,52.0,34.0,29.92,SSE,159,2.0,5.0,50,0.00,,,0.00,weatherlink.com 1.10,2013-02-25 18:38:00,
2013-02-25 13:53:00,52.1,33.0,29.91,SSE,150,1.0,5.0,49,0.00,,,0.00,weatherlink.com 1.10,2013-02-25 18:53:00,
2013-02-25 14:08:00,52.4,34.0,29.90,SSE,153,0.0,3.0,50,0.00,,,0.00,weatherlink.com 1.10,2013-02-25 19:08:00,
2013-02-25 14:38:00,53.0,35.0,29.90,SE,131,0.0,4.0,50,0.00,,,0.00,weatherlink.com 1.10,2013-02-25 19:38:00,
2013-02-25 14:53:00,53.2,34.0,29.89,SE,131,1.0,2.0,49,0.00,,,0.00,weatherlink.com 1.10,2013-02-25 19:53:00,
2013-02-25 15:08:00,53.3,35.0,29.89,SE,131,0.0,2.0,50,0.00,,,0.00,weatherlink.com 1.10,2013-02-25 20:08:00,
2013-02-25 15:23:00,53.5,36.0,29.88,SE,132,0.0,1.0,51,0.00,,,0.00,weatherlink.com 1.10,2013-02-25 20:23:00,
2013-02-25 15:38:00,53.4,36.0,29.88,SE,132,0.0,2.0,52,0.00,,,0.00,weatherlink.com 1.10,2013-02-25 20:38:00,
2013-02-25 15:53:00,53.5,37.0,29.88,West,267,0.0,0.0,53,0.00,,,0.00,weatherlink.com 1.10,2013-02-25 20:53:00,
2013-02-25 16:08:00,54.4,36.0,29.86,SSE,153,0.0,1.0,51,0.00,,,0.00,weatherlink.com 1.10,2013-02-25 21:08:00,
2013-02-25 16:23:00,54.5,36.0,29.85,SSE,154,1.0,4.0,51,0.00,,,0.00,weatherlink.com 1.10,2013-02-25 21:23:00,
2013-02-25 16:38:00,54.6,35.0,29.84,SE,144,0.0,5.0,48,0.00,,,0.00,weatherlink.com 1.10,2013-02-25 21:38:00,
2013-02-25 16:53:00,54.8,36.0,29.83,SE,144,1.0,2.0,49,0.00,,,0.00,weatherlink.com 1.10,2013-02-25 21:53:00,
2013-02-25 17:08:00,54.7,36.0,29.83,SE,144,2.0,3.0,50,0.00,,,0.00,weatherlink.com 1.10,2013-02-25 22:08:00,
2013-02-25 17:23:00,54.3,35.0,29.81,SE,142,1.0,2.0,49,0.00,,,0.00,weatherlink.com 1.10,2013-02-25 22:23:00,
2013-02-25 17:39:00,54.1,36.0,29.81,SE,142,0.0,0.0,50,0.00,,,0.00,weatherlink.com 1.10,2013-02-25 22:39:00,
2013-02-25 17:54:00,54.0,37.0,29.81,SE,142,0.0,1.0,53,0.00,,,0.00,weatherlink.com 1.10,2013-02-25 22:54:00,
2013-02-25 18:09:00,53.8,37.0,29.80,SE,142,0.0,0.0,53,0.00,,,0.00,weatherlink.com 1.10,2013-02-25 23:09:00,
2013-02-25 18:24:00,53.5,37.0,29.79,SE,142,0.0,0.0,55,0.00,,,0.00,weatherlink.com 1.10,2013-02-25 23:24:00,
2013-02-25 18:39:00,53.1,39.0,29.79,SE,142,0.0,0.0,60,0.00,,,0.00,weatherlink.com 1.10,2013-02-25 23:39:00,
2013-02-25 18:54:00,52.5,39.0,29.80,SE,141,0.0,0.0,61,0.00,,,0.00,weatherlink.com 1.10,2013-02-25 23:54:00,
2013-02-25 19:09:00,51.9,40.0,29.80,SE,141,0.0,0.0,65,0.00,,,0.00,weatherlink.com 1.10,2013-02-26 00:09:00,
2013-02-25 19:24:00,51.5,39.0,29.80,SE,142,0.0,0.0,63,0.00,,,0.00,weatherlink.com 1.10,2013-02-26 00:24:00,
2013-02-25 19:39:00,51.2,40.0,29.82,SE,142,0.0,0.0,66,0.00,,,0.00,weatherlink.com 1.10,2013-02-26 00:39:00,
2013-02-25 19:54:00,51.0,40.0,29.80,SE,142,0.0,1.0,66,0.00,,,0.00,weatherlink.com 1.10,2013-02-26 00:54:00,
2013-02-25 20:09:00,50.8,40.0,29.80,SE,142,0.0,0.0,66,0.00,,,0.00,weatherlink.com 1.10,2013-02-26 01:09:00,
2013-02-25 20:24:00,50.7,40.0,29.80,SE,141,0.0,1.0,66,0.00,,,0.00,weatherlink.com 1.10,2013-02-26 01:24:00,
2013-02-25 20:39:00,50.6,40.0,29.81,SE,141,0.0,1.0,66,0.00,,,0.00,weatherlink.com 1.10,2013-02-26 01:39:00,
2013-02-25 21:09:00,52.4,42.0,29.79,SSE,155,3.0,6.0,67,0.00,,,0.00,weatherlink.com 1.10,2013-02-26 02:09:00,
2013-02-25 21:24:00,53.4,42.0,29.79,SSE,153,1.0,5.0,66,0.00,,,0.00,weatherlink.com 1.10,2013-02-26 02:24:00,
2013-02-25 21:39:00,53.4,43.0,29.77,SSE,168,0.0,6.0,68,0.00,,,0.00,weatherlink.com 1.10,2013-02-26 02:39:00,
2013-02-25 21:54:00,53.0,43.0,29.77,SE,140,0.0,7.0,69,0.00,,,0.00,weatherlink.com 1.10,2013-02-26 02:54:00,
2013-02-25 22:09:00,52.6,43.0,29.78,SE,136,3.0,4.0,70,0.00,,,0.00,weatherlink.com 1.10,2013-02-26 03:09:00,
2013-02-25 22:24:00,52.2,43.0,29.76,SE,143,2.0,7.0,71,0.00,,,0.00,weatherlink.com 1.10,2013-02-26 03:24:00,
2013-02-25 22:54:00,51.8,43.0,29.76,SE,129,0.0,5.0,73,0.00,,,0.00,weatherlink.com 1.10,2013-02-26 03:54:00,
2013-02-25 23:09:00,51.7,43.0,29.75,SE,139,0.0,3.0,73,0.00,,,0.00,weatherlink.com 1.10,2013-02-26 04:09:00,
2013-02-25 23:24:00,51.6,44.0,29.76,ESE,123,0.0,3.0,75,0.00,,,0.00,weatherlink.com 1.10,2013-02-26 04:24:00,
2013-02-25 23:39:00,51.5,44.0,29.74,SE,138,0.0,3.0,75,0.00,,,0.00,weatherlink.com 1.10,2013-02-26 04:39:00,
2013-02-25 23:54:00,51.5,44.0,29.74,SE,141,0.0,5.0,75,0.00,,,0.00,weatherlink.com 1.10,2013-02-26 04:54:00,